Time;durP1;ratioP1;P1;durP2;ratioP2;P2;SDS_P1;SDS_P2;PMS_P1;PMS_P2;Temp;Humidity;BMP_temperature;BMP_pressure;BME280_temperature;BME280_humidity;BME280_pressure;Samples;Min_cycle;Max_cycle;Signal;HPM_P1;HPM_P2
2023/08/15 00:01:54;;;;;;;22.30;13.15;;;;;;;21.53;91.39;101084.91;5112356;28;20130;-66
2023/08/15 00:04:19;;;;;;;20.58;13.02;;;;;;;21.50;92.18;101083.66;5112539;28;20027;-66
2023/08/15 00:06:44;;;;;;;22.05;14.30;;;;;;;21.50;93.17;101089.31;5112784;28;20027;-66
2023/08/15 00:09:10;;;;;;;20.67;13.32;;;;;;;21.42;93.43;101088.34;5112499;28;20487;-66
2023/08/15 00:11:35;;;;;;;22.52;14.65;;;;;;;21.35;94.11;101086.22;5112446;28;20045;-66
2023/08/15 00:14:00;;;;;;;21.05;13.48;;;;;;;21.29;95.27;101082.09;5112380;28;20051;-66
2023/08/15 00:16:26;;;;;;;20.92;13.80;;;;;;;21.20;96.78;101078.72;5112341;28;20019;-66
2023/08/15 00:18:51;;;;;;;20.83;13.90;;;;;;;21.08;97.60;101071.28;5112370;28;20114;-66
2023/08/15 00:21:16;;;;;;;20.60;13.98;;;;;;;21.03;97.79;101066.78;5112441;27;20051;-66
2023/08/15 00:23:42;;;;;;;23.40;13.90;;;;;;;20.97;98.15;101061.81;5112479;28;20055;-66
2023/08/15 00:26:07;;;;;;;21.83;13.98;;;;;;;20.93;98.71;101053.31;5112431;28;20463;-67
2023/08/15 00:28:32;;;;;;;22.23;14.45;;;;;;;20.88;99.34;101047.97;5112415;28;20026;-66
2023/08/15 00:30:58;;;;;;;20.33;13.63;;;;;;;20.83;98.71;101059.53;5112209;28;20079;-66
2023/08/15 00:33:23;;;;;;;20.98;13.15;;;;;;;20.80;99.19;101054.66;5112272;28;20026;-66
2023/08/15 00:35:48;;;;;;;22.02;13.82;;;;;;;20.75;99.16;101072.63;5112039;28;20095;-66
2023/08/15 00:38:14;;;;;;;19.05;13.55;;;;;;;20.77;100.00;101073.09;5112274;28;20485;-66
2023/08/15 00:40:40;;;;;;;19.75;13.60;;;;;;;20.74;100.00;101071.00;5111986;28;20023;-66
2023/08/15 00:43:05;;;;;;;23.88;14.85;;;;;;;20.64;100.00;101063.97;5111964;28;20028;-66
2023/08/15 00:45:32;;;;;;;20.52;13.85;;;;;;;20.67;100.00;101063.25;5112082;28;20332;-66
2023/08/15 00:47:58;;;;;;;21.05;14.73;;;;;;;20.54;100.00;101067.38;5112115;28;20417;-66
2023/08/15 00:50:24;;;;;;;20.95;14.10;;;;;;;20.54;100.00;101064.56;5111893;28;20076;-66
2023/08/15 00:52:50;;;;;;;22.80;14.50;;;;;;;20.59;100.00;101078.34;5112334;28;20020;-66
2023/08/15 00:55:17;;;;;;;20.40;13.75;;;;;;;20.64;100.00;101085.66;5111812;28;20024;-66
2023/08/15 00:57:43;;;;;;;21.08;14.45;;;;;;;20.66;100.00;101081.28;5112060;28;20111;-66
2023/08/15 01:00:08;;;;;;;21.90;14.32;;;;;;;20.68;100.00;101087.34;5112061;28;20498;-66
2023/08/15 01:02:34;;;;;;;20.98;14.15;;;;;;;20.66;100.00;101091.69;5111961;28;20028;-66
2023/08/15 01:05:00;;;;;;;20.60;13.45;;;;;;;20.61;97.79;101081.56;5111785;28;20379;-66
2023/08/15 01:07:25;;;;;;;20.58;13.50;;;;;;;20.54;95.98;101092.66;5111906;28;20032;-66
2023/08/15 01:09:50;;;;;;;22.25;13.95;;;;;;;20.46;94.14;101086.06;5110564;28;20027;-67
2023/08/15 01:12:18;;;;;;;19.52;12.88;;;;;;;20.37;92.76;101079.84;5111993;28;20475;-66
2023/08/15 01:14:51;;;;;;;19.10;13.32;;;;;;;20.31;91.80;101078.50;5111943;28;20063;-66
2023/08/15 01:17:24;;;;;;;21.08;13.85;;;;;;;20.25;92.64;101087.25;5111607;28;20023;-66
2023/08/15 01:19:53;;;;;;;19.65;13.88;;;;;;;20.17;92.42;101074.19;5111735;28;20487;-66
2023/08/15 01:22:27;;;;;;;21.90;13.00;;;;;;;20.10;90.62;101076.84;5111760;28;20027;-66
2023/08/15 01:24:52;;;;;;;21.23;12.70;;;;;;;20.05;86.51;101068.72;5111841;28;20027;-66
2023/08/15 01:27:17;;;;;;;19.45;12.30;;;;;;;19.99;85.54;101073.81;5113846;28;20076;-66
2023/08/15 01:29:43;;;;;;;19.35;12.35;;;;;;;19.92;83.87;101076.44;5115600;28;20478;-66
2023/08/15 01:32:11;;;;;;;20.23;12.50;;;;;;;19.88;84.33;101076.38;5115552;28;20024;-66
2023/08/15 01:34:44;;;;;;;18.38;11.60;;;;;;;19.79;83.90;101068.09;5115492;28;20470;-66
2023/08/15 01:37:16;;;;;;;20.85;11.80;;;;;;;19.71;84.00;101068.28;5115754;28;20020;-67
2023/08/15 01:39:46;;;;;;;18.00;12.10;;;;;;;19.74;84.78;101082.38;5115782;28;20031;-66
2023/08/15 01:42:12;;;;;;;19.92;12.30;;;;;;;19.75;84.74;101091.66;5115756;28;20112;-66
2023/08/15 01:44:38;;;;;;;20.83;12.70;;;;;;;19.76;85.44;101099.69;5115530;28;20023;-67
2023/08/15 01:47:03;;;;;;;21.65;12.52;;;;;;;19.74;85.78;101104.84;5115463;28;20395;-66
2023/08/15 01:49:29;;;;;;;20.33;12.75;;;;;;;19.72;86.54;101120.44;5115478;28;20028;-66
2023/08/15 01:51:54;;;;;;;19.42;12.77;;;;;;;19.75;87.24;101128.13;5115309;28;20114;-66
2023/08/15 01:54:20;;;;;;;21.52;13.18;;;;;;;19.72;87.50;101123.22;5115378;28;20035;-66
2023/08/15 01:56:45;;;;;;;21.52;13.13;;;;;;;19.69;88.08;101121.97;5115268;28;20027;-66
2023/08/15 01:59:10;;;;;;;19.52;13.20;;;;;;;19.68;88.93;101125.16;5115281;28;20027;-66
2023/08/15 02:01:36;;;;;;;20.02;12.77;;;;;;;19.66;89.60;101136.72;5115146;27;20032;-66
2023/08/15 02:04:01;;;;;;;20.50;13.93;;;;;;;19.54;91.06;101129.22;5115174;28;20043;-66
2023/08/15 02:06:26;;;;;;;19.08;13.00;;;;;;;19.53;91.91;101133.19;5114920;28;20118;-66
2023/08/15 02:08:51;;;;;;;21.10;13.05;;;;;;;19.54;92.04;101134.03;5114732;27;20031;-66
2023/08/15 02:11:17;;;;;;;21.75;13.27;;;;;;;19.52;91.98;101141.97;5114903;28;20028;-66
2023/08/15 02:13:42;;;;;;;21.13;13.50;;;;;;;19.53;91.82;101146.41;5114920;28;20047;-66
2023/08/15 02:16:07;;;;;;;20.05;12.88;;;;;;;19.51;91.56;101140.34;5115009;28;20383;-66
2023/08/15 02:18:33;;;;;;;19.55;12.75;;;;;;;19.45;91.79;101142.59;5114936;28;20525;-66
2023/08/15 02:20:58;;;;;;;21.27;12.93;;;;;;;19.42;91.38;101154.53;5114977;28;20436;-66
2023/08/15 02:23:23;;;;;;;19.95;13.05;;;;;;;19.38;91.83;101162.84;5114898;28;20028;-66
2023/08/15 02:25:49;;;;;;;21.80;12.95;;;;;;;19.36;91.90;101162.41;5114731;28;20020;-68
2023/08/15 02:28:15;;;;;;;20.55;12.80;;;;;;;19.32;91.75;101169.91;5113387;28;20016;-65
2023/08/15 02:30:40;;;;;;;24.65;13.07;;;;;;;19.32;92.03;101167.09;5114999;28;20119;-65
2023/08/15 02:33:07;;;;;;;21.08;12.80;;;;;;;19.25;91.99;101164.91;5114658;28;20031;-65
2023/08/15 02:35:32;;;;;;;20.45;12.95;;;;;;;19.22;92.60;101165.63;5114537;28;20038;-65
2023/08/15 02:37:57;;;;;;;20.83;12.20;;;;;;;19.20;93.26;101165.19;5113492;28;20024;-65
2023/08/15 02:40:29;;;;;;;21.23;12.68;;;;;;;19.17;93.09;101171.50;5114578;28;20027;-65
2023/08/15 02:42:54;;;;;;;20.05;12.60;;;;;;;19.13;93.56;101162.16;5114557;28;20032;-66
2023/08/15 02:45:20;;;;;;;19.90;12.60;;;;;;;19.06;94.27;101159.97;5114285;28;20035;-65
2023/08/15 02:47:45;;;;;;;18.60;12.20;;;;;;;19.05;94.56;101154.72;5114377;28;20023;-65
2023/08/15 02:50:11;;;;;;;19.20;11.45;;;;;;;18.96;95.08;101155.69;5114512;27;20039;-65
2023/08/15 02:52:37;;;;;;;22.00;12.70;;;;;;;18.92;95.92;101156.72;5112859;28;20138;-65
2023/08/15 02:55:02;;;;;;;18.92;12.35;;;;;;;18.84;96.42;101150.13;5112911;28;20122;-65
2023/08/15 02:57:28;;;;;;;21.65;12.57;;;;;;;18.82;97.19;101152.44;5113868;28;20024;-65
2023/08/15 02:59:54;;;;;;;23.42;12.20;;;;;;;18.75;97.44;101150.25;5112669;28;20028;-65
2023/08/15 03:02:19;;;;;;;20.48;12.57;;;;;;;18.73;97.81;101151.78;5114130;27;20031;-65
2023/08/15 03:04:44;;;;;;;20.50;13.38;;;;;;;18.68;98.39;101164.84;5114062;28;20031;-66
2023/08/15 03:07:09;;;;;;;20.17;13.38;;;;;;;18.66;98.49;101167.19;5112676;28;20518;-65
2023/08/15 03:09:35;;;;;;;20.83;13.43;;;;;;;18.62;98.76;101168.25;5114047;28;20068;-66
2023/08/15 03:12:00;;;;;;;22.38;13.25;;;;;;;18.55;99.35;101169.66;5113850;28;20413;-66
2023/08/15 03:14:29;;;;;;;21.60;13.27;;;;;;;18.52;99.83;101163.97;5113953;28;20513;-66
2023/08/15 03:16:55;;;;;;;20.48;12.45;;;;;;;18.52;99.88;101161.97;5113822;28;20027;-65
2023/08/15 03:19:20;;;;;;;19.58;12.27;;;;;;;18.48;100.00;101157.41;5113976;28;20031;-66
2023/08/15 03:21:45;;;;;;;21.80;12.27;;;;;;;18.44;100.00;101157.31;5113741;28;20093;-66
2023/08/15 03:24:11;;;;;;;20.83;12.63;;;;;;;18.42;100.00;101165.25;5113602;28;20038;-65
2023/08/15 03:26:36;;;;;;;20.42;12.55;;;;;;;18.40;100.00;101165.59;5113555;28;20042;-65
2023/08/15 03:29:02;;;;;;;19.30;12.45;;;;;;;18.30;100.00;101162.47;5113469;28;20080;-65
2023/08/15 03:31:27;;;;;;;21.10;12.73;;;;;;;18.28;100.00;101174.00;5113611;28;20027;-65
2023/08/15 03:33:52;;;;;;;21.15;13.02;;;;;;;18.23;100.00;101172.25;5113413;28;20035;-66
2023/08/15 03:36:18;;;;;;;19.92;13.35;;;;;;;18.19;100.00;101165.75;5113325;28;20408;-66
2023/08/15 03:38:43;;;;;;;22.17;13.77;;;;;;;18.14;100.00;101165.97;5113258;28;20458;-66
2023/08/15 03:41:09;;;;;;;22.10;13.25;;;;;;;18.14;100.00;101165.97;5111752;28;20023;-66
2023/08/15 03:43:35;;;;;;;19.20;12.95;;;;;;;18.07;100.00;101158.19;5113090;28;20081;-66
2023/08/15 03:46:01;;;;;;;22.77;13.13;;;;;;;18.12;100.00;101168.31;5112918;28;20479;-66
2023/08/15 03:48:29;;;;;;;21.40;13.63;;;;;;;18.06;100.00;101164.09;5112869;28;20488;-66
2023/08/15 03:50:56;;;;;;;21.45;13.50;;;;;;;18.05;100.00;101166.09;5112561;28;20024;-66
2023/08/15 03:53:22;;;;;;;20.63;13.85;;;;;;;18.02;100.00;101168.78;5111435;28;20467;-66
2023/08/15 03:55:51;;;;;;;22.23;13.68;;;;;;;17.93;100.00;101178.09;5112558;28;20072;-66
2023/08/15 03:58:17;;;;;;;22.20;13.35;;;;;;;17.86;100.00;101174.22;5112838;28;20031;-66
2023/08/15 04:00:43;;;;;;;21.20;12.65;;;;;;;17.84;100.00;101171.78;5112617;28;20020;-66
2023/08/15 04:03:09;;;;;;;22.60;12.68;;;;;;;17.77;100.00;101175.16;5112608;28;20031;-66
2023/08/15 04:05:34;;;;;;;20.52;12.75;;;;;;;17.75;100.00;101173.88;5112515;28;20032;-66
2023/08/15 04:08:00;;;;;;;22.10;13.93;;;;;;;17.74;100.00;101169.44;5112440;28;20123;-66
2023/08/15 04:10:25;;;;;;;23.38;13.85;;;;;;;17.72;100.00;101171.75;5112300;28;20096;-66
2023/08/15 04:12:50;;;;;;;22.63;13.50;;;;;;;17.66;100.00;101167.56;5112353;28;20027;-66
2023/08/15 04:15:16;;;;;;;21.35;13.38;;;;;;;17.64;100.00;101181.06;5112271;28;20015;-66
2023/08/15 04:17:41;;;;;;;21.92;14.80;;;;;;;17.59;100.00;101182.91;5112185;28;20054;-66
2023/08/15 04:20:07;;;;;;;23.58;14.30;;;;;;;17.60;100.00;101189.34;5112192;28;20100;-66
2023/08/15 04:22:34;;;;;;;21.85;14.30;;;;;;;17.59;100.00;101170.91;5111963;28;20048;-66
2023/08/15 04:24:59;;;;;;;21.30;14.10;;;;;;;17.55;100.00;101165.19;5111971;28;20020;-66
2023/08/15 04:27:25;;;;;;;21.90;15.00;;;;;;;17.52;100.00;101177.06;5111877;28;20493;-66
2023/08/15 04:29:50;;;;;;;21.75;15.15;;;;;;;17.48;100.00;101181.72;5111528;28;20097;-66
2023/08/15 04:32:16;;;;;;;21.60;15.20;;;;;;;17.50;100.00;101168.19;5110438;28;20031;-66
2023/08/15 04:34:41;;;;;;;23.95;15.20;;;;;;;17.48;100.00;101181.72;5111809;28;20034;-66
2023/08/15 04:37:06;;;;;;;23.08;15.23;;;;;;;17.47;100.00;101185.69;5110293;28;20108;-66
2023/08/15 04:39:32;;;;;;;24.95;14.57;;;;;;;17.48;100.00;101173.31;5111741;28;20476;-66
2023/08/15 04:41:57;;;;;;;21.85;14.13;;;;;;;17.47;100.00;101196.88;5111882;28;20027;-66
2023/08/15 04:44:22;;;;;;;21.75;13.50;;;;;;;17.40;100.00;101197.44;5111801;28;20073;-66
2023/08/15 04:46:48;;;;;;;23.33;13.98;;;;;;;17.37;100.00;101192.53;5111698;28;20036;-66
2023/08/15 04:49:14;;;;;;;22.13;13.82;;;;;;;17.34;100.00;101209.97;5111665;28;20027;-66
2023/08/15 04:51:39;;;;;;;22.00;14.20;;;;;;;17.32;100.00;101209.53;5111717;28;20111;-66
2023/08/15 04:54:04;;;;;;;23.92;14.73;;;;;;;17.28;100.00;101211.38;5111663;27;20480;-66
2023/08/15 04:56:30;;;;;;;24.38;14.65;;;;;;;17.34;100.00;101215.56;5111562;28;20024;-65
2023/08/15 04:58:55;;;;;;;22.55;14.23;;;;;;;17.31;100.00;101230.25;5111617;28;20030;-65
2023/08/15 05:01:20;;;;;;;23.27;13.95;;;;;;;17.36;100.00;101238.44;5110958;28;20028;-66
2023/08/15 05:03:46;;;;;;;23.63;13.82;;;;;;;17.34;100.00;101237.94;5111557;28;20112;-66
2023/08/15 05:06:11;;;;;;;23.48;14.40;;;;;;;17.33;100.00;101239.13;5111805;28;20031;-66
2023/08/15 05:08:36;;;;;;;25.63;13.93;;;;;;;17.25;100.00;101243.63;5110138;28;20031;-65
2023/08/15 05:11:02;;;;;;;22.27;14.02;;;;;;;17.26;100.00;101250.03;5111638;28;20074;-65
2023/08/15 05:13:27;;;;;;;21.35;14.25;;;;;;;17.26;100.00;101252.81;5110335;28;20039;-65
2023/08/15 05:15:53;;;;;;;23.67;14.35;;;;;;;17.21;100.00;101269.81;5111404;28;20460;-66
2023/08/15 05:18:19;;;;;;;22.60;14.05;;;;;;;17.20;100.00;101273.78;5111780;28;20039;-66
2023/08/15 05:20:48;;;;;;;24.23;14.35;;;;;;;17.15;100.00;101277.59;5111779;28;20034;-66
2023/08/15 05:23:14;;;;;;;23.63;14.45;;;;;;;17.14;100.00;101281.53;5111500;28;20390;-66
2023/08/15 05:25:41;;;;;;;24.27;14.77;;;;;;;17.13;100.00;101271.50;5111347;28;20076;-65
2023/08/15 05:28:07;;;;;;;22.77;14.50;;;;;;;17.08;100.00;101280.13;5111416;28;20455;-66
2023/08/15 05:30:32;;;;;;;23.25;14.98;;;;;;;17.08;100.00;101278.13;5111291;28;20126;-66
2023/08/15 05:32:58;;;;;;;23.45;14.60;;;;;;;17.14;100.00;101285.13;5110106;28;20026;-66
2023/08/15 05:35:24;;;;;;;20.90;14.75;;;;;;;17.21;100.00;101290.19;5111097;28;20062;-66
2023/08/15 05:37:49;;;;;;;22.40;15.07;;;;;;;17.34;100.00;101298.66;5111115;28;20550;-65
2023/08/15 05:40:15;;;;;;;22.77;15.00;;;;;;;17.42;100.00;101292.16;5111069;28;20398;-65
2023/08/15 05:42:40;;;;;;;24.05;15.05;;;;;;;17.50;100.00;101290.47;5111214;28;20031;-66
2023/08/15 05:45:06;;;;;;;24.70;15.13;;;;;;;17.50;100.00;101279.28;5109660;28;20059;-66
2023/08/15 05:47:32;;;;;;;23.90;15.30;;;;;;;17.57;100.00;101274.75;5111119;28;20110;-66
2023/08/15 05:49:57;;;;;;;23.88;15.55;;;;;;;17.59;100.00;101274.41;5111096;28;20023;-65
2023/08/15 05:52:22;;;;;;;24.85;15.15;;;;;;;17.65;100.00;101280.63;5111024;28;20034;-65
2023/08/15 05:54:48;;;;;;;23.77;15.02;;;;;;;17.69;100.00;101287.97;5110936;28;20016;-66
2023/08/15 05:57:13;;;;;;;22.98;15.15;;;;;;;17.71;100.00;101291.22;5111244;28;20096;-66
2023/08/15 05:59:39;;;;;;;24.25;15.60;;;;;;;17.76;100.00;101291.03;5110985;28;20116;-66
2023/08/15 06:02:04;;;;;;;23.60;14.98;;;;;;;17.80;100.00;101299.56;5111007;28;20028;-66
2023/08/15 06:04:30;;;;;;;25.02;15.10;;;;;;;17.85;100.00;101299.34;5110949;28;20028;-66
2023/08/15 06:06:55;;;;;;;23.55;15.65;;;;;;;17.85;100.00;101310.53;5110973;28;20028;-66
2023/08/15 06:09:20;;;;;;;23.58;15.95;;;;;;;17.80;100.00;101299.56;5110314;28;20019;-66
2023/08/15 06:11:46;;;;;;;25.17;16.38;;;;;;;17.86;100.00;101300.16;5110800;28;20551;-66
2023/08/15 06:14:11;;;;;;;24.75;15.85;;;;;;;17.92;100.00;101304.38;5114075;28;20391;-66
2023/08/15 06:16:36;;;;;;;25.23;15.13;;;;;;;18.00;100.00;101302.66;5114318;28;20071;-67
2023/08/15 06:19:02;;;;;;;24.60;15.65;;;;;;;18.09;100.00;101321.00;5114369;28;20026;-65
2023/08/15 06:21:27;;;;;;;25.35;15.70;;;;;;;18.14;100.00;101325.56;5112911;28;20050;-66
2023/08/15 06:23:52;;;;;;;23.80;15.30;;;;;;;18.18;100.00;101331.31;5112916;28;20115;-66
2023/08/15 06:26:17;;;;;;;23.23;14.82;;;;;;;18.27;100.00;101339.59;5130064;27;20055;-66
2023/08/15 06:28:43;;;;;;;25.27;15.73;;;;;;;18.29;100.00;101337.28;5114265;28;20023;-66
2023/08/15 06:31:08;;;;;;;22.80;14.88;;;;;;;18.29;100.00;101340.06;5114049;28;20074;-66
2023/08/15 06:33:33;;;;;;;23.63;15.15;;;;;;;18.35;100.00;101336.72;5112710;28;20411;-67
2023/08/15 06:35:59;;;;;;;25.55;15.75;;;;;;;18.47;100.00;101335.91;5114077;28;20490;-66
2023/08/15 06:38:25;;;;;;;25.60;16.20;;;;;;;18.49;100.00;101333.56;5114558;28;20039;-66
2023/08/15 06:40:50;;;;;;;24.48;15.52;;;;;;;18.51;100.00;101327.59;5114367;28;20107;-66
2023/08/15 06:43:16;;;;;;;27.23;16.02;;;;;;;18.57;100.00;101334.59;5113995;28;20169;-66
2023/08/15 06:45:41;;;;;;;23.02;14.73;;;;;;;18.67;100.00;101336.94;5114037;28;20030;-67
2023/08/15 06:48:06;;;;;;;23.00;14.73;;;;;;;18.78;100.00;101337.31;5114048;28;20035;-66
2023/08/15 06:50:32;;;;;;;21.65;14.13;;;;;;;18.90;100.00;101333.69;5113925;28;20474;-67
2023/08/15 06:52:57;;;;;;;22.98;14.18;;;;;;;19.03;100.00;101345.72;5114116;28;20032;-66
2023/08/15 06:55:23;;;;;;;23.00;14.68;;;;;;;19.08;100.00;101344.69;5114094;28;20462;-67
2023/08/15 06:57:49;;;;;;;23.30;14.68;;;;;;;19.15;100.00;101345.72;5114163;28;20023;-67
2023/08/15 07:00:15;;;;;;;22.00;14.15;;;;;;;19.23;100.00;101349.53;5112188;28;20096;-67
2023/08/15 07:02:41;;;;;;;23.73;14.40;;;;;;;19.28;100.00;101340.91;5113771;28;20024;-67
2023/08/15 07:05:07;;;;;;;23.10;14.35;;;;;;;19.35;100.00;101342.28;5113788;28;20050;-67
2023/08/15 07:07:33;;;;;;;22.35;14.48;;;;;;;19.39;100.00;101341.22;5113488;28;20023;-67
2023/08/15 07:09:58;;;;;;;24.17;14.27;;;;;;;19.49;100.00;101332.31;5113721;28;20024;-67
2023/08/15 07:12:23;;;;;;;25.63;15.13;;;;;;;19.59;100.00;101342.22;5113550;28;20070;-67
2023/08/15 07:14:48;;;;;;;22.02;13.63;;;;;;;19.67;100.00;101339.63;5112302;28;20032;-67
2023/08/15 07:17:14;;;;;;;22.63;13.77;;;;;;;19.77;100.00;101344.72;5113398;28;20035;-67
2023/08/15 07:19:39;;;;;;;22.80;13.50;;;;;;;19.83;100.00;101340.47;5111872;28;20475;-65
2023/08/15 07:22:05;;;;;;;21.23;13.10;;;;;;;19.86;100.00;101345.41;5113251;28;20086;-66
2023/08/15 07:24:30;;;;;;;21.20;12.73;;;;;;;19.89;100.00;101350.31;5112514;28;20031;-65
2023/08/15 07:26:55;;;;;;;22.13;13.25;;;;;;;19.99;100.00;101350.97;5113160;28;20031;-65
2023/08/15 07:29:21;;;;;;;20.95;12.45;;;;;;;20.13;100.00;101365.41;5112909;28;20053;-65
2023/08/15 07:31:46;;;;;;;21.77;12.75;;;;;;;20.25;99.02;101367.31;5113125;28;20227;-66
2023/08/15 07:34:12;;;;;;;21.25;12.88;;;;;;;20.32;98.90;101364.69;5111510;28;20621;-66
2023/08/15 07:36:37;;;;;;;22.45;12.85;;;;;;;20.38;98.18;101370.88;5112775;28;20539;-66
2023/08/15 07:39:03;;;;;;;23.27;13.40;;;;;;;20.37;97.58;101366.44;5113114;28;20063;-66
2023/08/15 07:41:29;;;;;;;20.88;13.00;;;;;;;20.40;97.67;101360.91;5112775;28;20049;-67
2023/08/15 07:43:55;;;;;;;21.02;11.85;;;;;;;20.50;98.10;101372.81;5112763;28;20471;-67
2023/08/15 07:46:20;;;;;;;20.35;12.27;;;;;;;20.51;97.18;101365.97;5112836;28;20027;-67
2023/08/15 07:48:46;;;;;;;21.65;12.40;;;;;;;20.56;95.81;101372.16;5112980;28;20511;-67
2023/08/15 07:51:11;;;;;;;20.33;11.80;;;;;;;20.61;95.94;101376.69;5112674;28;20386;-67
2023/08/15 07:53:36;;;;;;;20.85;12.70;;;;;;;20.61;95.63;101379.50;5112846;28;20019;-67
2023/08/15 07:56:02;;;;;;;23.20;11.98;;;;;;;20.56;95.21;101372.16;5112559;28;20131;-67
2023/08/15 07:58:28;;;;;;;22.23;13.23;;;;;;;20.49;96.22;101371.97;5112591;28;20027;-67
2023/08/15 08:00:53;;;;;;;21.67;12.55;;;;;;;20.53;96.04;101383.31;5112645;28;20045;-67
2023/08/15 08:03:18;;;;;;;21.02;12.30;;;;;;;20.61;95.24;101379.50;5112571;28;20072;-67
2023/08/15 08:05:44;;;;;;;21.48;12.43;;;;;;;20.66;95.08;101389.66;5112453;28;20024;-67
2023/08/15 08:08:09;;;;;;;21.88;12.60;;;;;;;20.76;94.89;101393.97;5112471;28;20027;-67
2023/08/15 08:10:36;;;;;;;20.98;12.55;;;;;;;20.77;94.14;101387.97;5110978;28;20097;-67
2023/08/15 08:13:01;;;;;;;20.75;12.32;;;;;;;20.87;94.69;101387.41;5112406;28;20027;-67
2023/08/15 08:15:28;;;;;;;20.58;12.38;;;;;;;20.85;93.87;101388.97;5112274;28;20030;-67
2023/08/15 08:17:53;;;;;;;21.73;12.18;;;;;;;20.80;93.15;101386.41;5112088;28;20130;-67
2023/08/15 08:20:19;;;;;;;19.83;12.07;;;;;;;20.82;93.96;101398.94;5112015;28;20050;-66
2023/08/15 08:22:44;;;;;;;20.45;11.75;;;;;;;20.82;93.56;101390.53;5112071;28;20483;-66
2023/08/15 08:25:12;;;;;;;21.65;13.30;;;;;;;20.86;94.08;101396.22;5111998;27;20080;-66
2023/08/15 08:27:38;;;;;;;22.70;13.63;;;;;;;20.89;94.26;101395.47;5112168;28;20035;-66
2023/08/15 08:30:03;;;;;;;22.08;12.50;;;;;;;21.02;94.27;101394.22;5111871;28;20434;-67
2023/08/15 08:32:28;;;;;;;22.27;12.82;;;;;;;21.10;92.90;101394.38;5110798;28;20040;-67
2023/08/15 08:34:54;;;;;;;21.15;12.38;;;;;;;21.11;92.71;101394.00;5111868;27;20039;-67
2023/08/15 08:37:19;;;;;;;21.58;12.40;;;;;;;21.10;92.78;101386.75;5109483;28;20032;-66
2023/08/15 08:39:44;;;;;;;18.58;11.98;;;;;;;21.17;93.04;101388.91;5111554;28;20119;-66
2023/08/15 08:42:10;;;;;;;21.60;12.38;;;;;;;21.23;92.45;101400.69;5111844;28;20053;-68
2023/08/15 08:44:36;;;;;;;22.65;12.80;;;;;;;21.27;92.57;101393.97;5111971;28;20046;-67
2023/08/15 08:47:02;;;;;;;23.00;12.57;;;;;;;21.29;92.30;101397.25;5112102;28;20035;-67
2023/08/15 08:49:29;;;;;;;22.90;12.27;;;;;;;21.25;92.05;101398.34;5110422;28;20398;-67
2023/08/15 08:51:56;;;;;;;22.25;12.63;;;;;;;21.26;92.60;101409.22;5112113;28;20055;-67
2023/08/15 08:54:21;;;;;;;20.95;12.23;;;;;;;21.26;92.71;101402.78;5111797;28;20027;-67
2023/08/15 08:56:49;;;;;;;19.05;11.70;;;;;;;21.23;92.07;101397.88;5111547;28;20035;-67
2023/08/15 08:59:16;;;;;;;20.13;12.32;;;;;;;21.29;92.81;101399.25;5111575;28;20020;-67
2023/08/15 09:01:42;;;;;;;23.25;12.35;;;;;;;21.33;92.42;101406.59;5111493;28;20059;-67
2023/08/15 09:04:08;;;;;;;20.92;12.05;;;;;;;21.44;91.44;101408.84;5109988;28;20088;-67
2023/08/15 09:06:33;;;;;;;23.45;12.30;;;;;;;21.55;90.95;101401.44;5111521;28;20486;-66
2023/08/15 09:08:59;;;;;;;21.83;11.90;;;;;;;21.70;90.73;101407.41;5111428;28;20096;-67
2023/08/15 09:11:35;;;;;;;21.00;11.75;;;;;;;21.80;90.13;101404.00;5111566;28;20483;-67
2023/08/15 09:14:03;;;;;;;21.58;11.82;;;;;;;21.89;89.89;101409.41;5111492;28;20471;-67
2023/08/15 09:16:29;;;;;;;18.73;11.73;;;;;;;21.93;87.89;101418.75;5111426;28;20051;-67
2023/08/15 09:18:54;;;;;;;22.55;11.90;;;;;;;21.93;88.64;101418.75;5111370;28;20499;-67
2023/08/15 09:21:19;;;;;;;21.70;12.40;;;;;;;21.96;88.26;101418.03;5111396;28;20357;-67
2023/08/15 09:23:45;;;;;;;20.75;11.80;;;;;;;22.01;87.11;101423.34;5111435;28;20051;-67
2023/08/15 09:26:14;;;;;;;20.40;11.52;;;;;;;22.10;86.76;101423.13;5111322;28;20024;-67
2023/08/15 09:28:40;;;;;;;20.55;11.70;;;;;;;22.16;86.57;101429.25;5111357;28;20068;-67
2023/08/15 09:31:07;;;;;;;20.77;11.68;;;;;;;22.28;86.39;101431.91;5111462;28;20052;-67
2023/08/15 09:33:34;;;;;;;21.77;11.95;;;;;;;22.35;85.82;101434.06;5111622;28;20051;-67
2023/08/15 09:36:03;;;;;;;21.75;12.35;;;;;;;22.40;84.73;101434.63;5111176;28;20038;-67
2023/08/15 09:38:29;;;;;;;22.10;14.00;;;;;;;22.54;85.04;101436.88;5111284;28;20038;-67
2023/08/15 09:40:55;;;;;;;21.23;12.40;;;;;;;22.75;83.54;101436.44;5111214;28;20024;-67
2023/08/15 09:43:20;;;;;;;21.75;12.90;;;;;;;23.03;83.24;101448.59;5109806;28;20055;-67
2023/08/15 09:45:46;;;;;;;23.52;13.07;;;;;;;23.26;81.57;101440.13;5111226;28;20379;-67
2023/08/15 09:48:12;;;;;;;21.27;13.45;;;;;;;23.40;79.90;101436.72;5113118;28;20442;-68
2023/08/15 09:50:38;;;;;;;21.73;11.98;;;;;;;23.55;79.38;101437.72;5115053;28;20487;-67
2023/08/15 09:53:04;;;;;;;20.83;12.00;;;;;;;23.71;77.92;101445.19;5115148;28;20535;-67
2023/08/15 09:55:32;;;;;;;19.88;11.10;;;;;;;23.74;77.36;101438.78;5115106;28;20024;-67
2023/08/15 09:57:57;;;;;;;22.65;12.32;;;;;;;23.80;77.08;101445.72;5114923;28;20027;-67
2023/08/15 10:00:23;;;;;;;21.80;12.00;;;;;;;23.82;75.76;101441.31;5114830;27;20032;-68
2023/08/15 10:02:55;;;;;;;20.85;11.38;;;;;;;23.67;74.81;101462.91;5115096;28;20386;-68
2023/08/15 10:05:23;;;;;;;20.90;11.90;;;;;;;23.64;75.02;101446.75;5114839;28;20027;-67
2023/08/15 10:07:51;;;;;;;21.52;12.10;;;;;;;23.56;75.11;101469.59;5114732;28;20420;-68
2023/08/15 10:10:17;;;;;;;20.15;11.73;;;;;;;23.53;75.68;101471.19;5114726;28;20032;-67
2023/08/15 10:12:45;;;;;;;21.50;12.73;;;;;;;23.70;77.21;101478.28;5114927;28;20109;-67
2023/08/15 10:15:11;;;;;;;22.38;12.25;;;;;;;23.82;75.61;101469.56;5114534;28;20075;-67
2023/08/15 10:17:37;;;;;;;23.45;12.80;;;;;;;23.93;75.54;101478.19;5114605;28;20040;-67
2023/08/15 10:20:13;;;;;;;20.83;12.50;;;;;;;24.11;74.73;101472.00;5114573;28;20080;-67
2023/08/15 10:22:41;;;;;;;22.70;12.70;;;;;;;24.18;73.55;101477.72;5114770;28;20035;-68
2023/08/15 10:25:22;;;;;;;19.80;12.02;;;;;;;24.17;75.18;101473.25;5114363;28;20092;-67
2023/08/15 10:27:49;;;;;;;20.38;11.93;;;;;;;24.01;73.35;101483.97;5114368;28;20092;-67
2023/08/15 10:30:35;;;;;;;20.90;12.77;;;;;;;24.06;75.00;101466.66;5113956;28;20356;-67
2023/08/15 10:33:14;;;;;;;20.48;11.80;;;;;;;24.11;73.45;101467.13;5114341;28;20034;-67
2023/08/15 10:36:02;;;;;;;21.27;13.02;;;;;;;24.25;74.51;101474.16;5114127;28;20023;-67
2023/08/15 10:38:29;;;;;;;20.13;12.38;;;;;;;24.33;74.87;101480.69;5102953;27;20104;-68
2023/08/15 10:41:12;;;;;;;22.63;12.35;;;;;;;24.49;75.01;101483.31;5113975;28;20032;-67
2023/08/15 10:43:37;;;;;;;21.20;12.30;;;;;;;24.59;73.55;101482.63;5114091;28;20387;-68
2023/08/15 10:46:05;;;;;;;19.25;12.13;;;;;;;24.58;72.48;101490.31;5113892;28;20023;-66
2023/08/15 10:48:50;;;;;;;20.17;11.13;;;;;;;24.70;73.10;101483.56;5113897;28;20020;-66
2023/08/15 10:51:20;;;;;;;20.23;11.23;;;;;;;24.64;70.20;101479.44;5113782;28;20033;-66
2023/08/15 10:53:49;;;;;;;19.92;10.65;;;;;;;24.75;70.69;101486.03;5113724;28;20030;-66
2023/08/15 10:56:32;;;;;;;20.02;11.68;;;;;;;24.79;72.24;101471.13;5113601;28;20496;-66
2023/08/15 10:58:59;;;;;;;19.88;11.65;;;;;;;24.98;71.38;101478.59;5112802;28;20035;-66
2023/08/15 11:01:26;;;;;;;20.67;11.55;;;;;;;25.26;68.85;101472.34;5112148;28;20032;-68
2023/08/15 11:03:54;;;;;;;21.30;11.35;;;;;;;25.47;67.86;101480.19;5113752;28;20050;-67